createdAt,value
2022-07-25T00:02:00.161Z,99.90
2022-07-25T00:04:27.521Z,99.90
2022-07-25T00:06:54.319Z,99.90
2022-07-25T00:09:23.330Z,99.90
2022-07-25T00:11:50.048Z,99.90
2022-07-25T00:14:16.822Z,99.90
2022-07-25T00:16:45.844Z,99.90
2022-07-25T00:19:15.035Z,99.90
2022-07-25T00:21:41.822Z,99.90
2022-07-25T00:24:09.432Z,99.90
2022-07-25T00:26:39.967Z,99.90
2022-07-25T00:29:07.142Z,99.90
2022-07-25T00:31:34.045Z,99.90
2022-07-25T00:34:00.830Z,99.90
2022-07-25T00:36:27.595Z,99.90
2022-07-25T00:38:54.344Z,99.90
2022-07-25T00:41:23.681Z,99.90
2022-07-25T00:43:52.878Z,99.90
2022-07-25T00:46:20.601Z,99.90
2022-07-25T00:48:48.418Z,99.90
2022-07-25T00:51:16.274Z,99.90
2022-07-25T00:53:43.611Z,99.90
2022-07-25T00:56:12.610Z,99.90
2022-07-25T00:58:39.342Z,99.90
2022-07-25T01:01:06.341Z,99.90
2022-07-25T01:03:38.131Z,99.90
2022-07-25T01:06:05.055Z,99.90
2022-07-25T01:08:32.625Z,99.90
2022-07-25T01:10:59.626Z,99.90
2022-07-25T01:13:26.355Z,99.90
2022-07-25T01:15:53.111Z,99.90
2022-07-25T01:18:22.574Z,99.90
2022-07-25T01:20:49.300Z,99.90
2022-07-25T01:23:18.283Z,99.90
2022-07-25T01:25:45.796Z,99.90
2022-07-25T01:28:12.814Z,99.90
2022-07-25T01:30:40.131Z,99.90
2022-07-25T01:33:09.139Z,99.90
2022-07-25T01:35:40.201Z,99.90
2022-07-25T01:38:10.103Z,99.90
2022-07-25T01:40:36.918Z,99.90
2022-07-25T01:43:06.593Z,99.90
2022-07-25T01:45:33.753Z,99.90
2022-07-25T01:48:00.593Z,99.90
2022-07-25T01:50:29.918Z,99.90
2022-07-25T01:52:56.856Z,99.90
2022-07-25T01:55:23.659Z,99.90
2022-07-25T01:57:54.493Z,99.90
2022-07-25T02:00:23.765Z,99.90
2022-07-25T02:03:10.484Z,99.90
2022-07-25T02:05:37.353Z,99.90
2022-07-25T02:08:04.468Z,99.90
2022-07-25T02:10:31.836Z,99.90
2022-07-25T02:13:01.619Z,99.90
2022-07-25T02:15:28.463Z,99.90
2022-07-25T02:17:55.331Z,99.90
2022-07-25T02:20:22.192Z,99.90
2022-07-25T02:22:48.989Z,99.90
2022-07-25T02:25:15.769Z,99.90
2022-07-25T02:27:42.589Z,99.90
2022-07-25T02:30:09.705Z,99.90
2022-07-25T02:32:36.462Z,99.90
2022-07-25T02:35:03.897Z,99.90
2022-07-25T02:37:39.856Z,99.90
2022-07-25T02:40:07.439Z,99.90
2022-07-25T02:42:36.458Z,99.90
2022-07-25T02:45:05.780Z,99.90
2022-07-25T02:47:32.498Z,99.90
2022-07-25T02:49:59.241Z,99.90
2022-07-25T02:52:26.049Z,99.90
2022-07-25T02:54:55.025Z,99.90
2022-07-25T02:57:23.942Z,99.90
2022-07-25T02:59:50.656Z,99.90
2022-07-25T03:02:19.922Z,99.90
2022-07-25T03:04:46.773Z,99.90
2022-07-25T03:07:13.492Z,99.90
2022-07-25T03:09:40.231Z,99.90
2022-07-25T03:12:07.099Z,99.90
2022-07-25T03:14:33.874Z,99.90
2022-07-25T03:17:02.960Z,99.90
2022-07-25T03:19:29.805Z,99.90
2022-07-25T03:21:56.537Z,99.90
2022-07-25T03:24:25.373Z,99.90
2022-07-25T03:26:52.085Z,99.90
2022-07-25T03:29:21.180Z,99.90
2022-07-25T03:31:47.962Z,99.90
2022-07-25T03:34:16.994Z,99.90
2022-07-25T03:36:43.723Z,99.90
2022-07-25T03:39:10.509Z,99.90
2022-07-25T03:41:37.276Z,99.90
2022-07-25T03:44:04.657Z,99.90
2022-07-25T03:46:31.738Z,99.90
2022-07-25T03:49:00.773Z,99.90
2022-07-25T03:51:27.538Z,99.90
2022-07-25T03:54:02.745Z,99.90
2022-07-25T03:56:29.649Z,99.90
2022-07-25T03:58:56.376Z,99.90
2022-07-25T04:01:26.605Z,99.90
2022-07-25T04:03:53.604Z,99.90
2022-07-25T04:06:20.413Z,99.90
2022-07-25T04:08:50.083Z,99.90
2022-07-25T04:11:16.836Z,99.90
2022-07-25T04:13:45.745Z,99.90
2022-07-25T04:16:14.839Z,99.90
2022-07-25T04:18:47.953Z,99.90
2022-07-25T04:21:18.273Z,99.90
2022-07-25T04:23:45.189Z,99.90
2022-07-25T04:26:11.930Z,99.90
2022-07-25T04:28:38.666Z,99.90
2022-07-25T04:31:05.666Z,99.90
2022-07-25T04:33:32.428Z,99.90
2022-07-25T04:36:03.751Z,99.90
2022-07-25T04:38:30.559Z,99.90
2022-07-25T04:40:57.288Z,99.90
2022-07-25T04:43:24.427Z,99.90
2022-07-25T04:45:51.258Z,99.90
2022-07-25T04:48:18.071Z,99.90
2022-07-25T04:50:49.702Z,99.90
2022-07-25T04:53:16.456Z,99.90
2022-07-25T04:55:45.671Z,99.90
2022-07-25T04:58:12.469Z,99.90
2022-07-25T05:00:39.444Z,99.90
2022-07-25T05:03:06.312Z,99.90
2022-07-25T05:05:35.552Z,99.90
2022-07-25T05:08:02.301Z,99.90
2022-07-25T05:10:29.929Z,99.90
2022-07-25T05:12:57.295Z,99.90
2022-07-25T05:15:26.583Z,99.90
2022-07-25T05:17:53.398Z,99.90
2022-07-25T05:20:20.206Z,99.90
2022-07-25T05:22:47.228Z,99.90
2022-07-25T05:25:16.268Z,99.90
2022-07-25T05:27:45.515Z,99.90
2022-07-25T05:30:13.593Z,99.90
2022-07-25T05:32:41.585Z,99.90
2022-07-25T05:35:09.285Z,99.90
2022-07-25T05:37:39.393Z,99.90
2022-07-25T05:40:09.800Z,99.90
2022-07-25T05:42:38.743Z,99.90
2022-07-25T05:45:06.159Z,99.90
2022-07-25T05:47:32.904Z,99.90
2022-07-25T05:49:59.962Z,99.90
2022-07-25T05:52:31.415Z,99.90
2022-07-25T05:54:58.166Z,99.90
2022-07-25T05:57:24.992Z,99.90
2022-07-25T05:59:51.770Z,99.90
2022-07-25T06:02:18.692Z,99.90
2022-07-25T06:04:45.594Z,99.90
2022-07-25T06:07:16.921Z,99.90
2022-07-25T06:09:48.599Z,99.90
2022-07-25T06:12:15.442Z,99.90
2022-07-25T06:14:42.423Z,99.90
2022-07-25T06:17:09.721Z,99.90
2022-07-25T06:19:36.562Z,99.90
2022-07-25T06:22:03.293Z,99.90
2022-07-25T06:24:30.064Z,99.90
2022-07-25T06:26:59.263Z,99.90
2022-07-25T06:29:28.465Z,99.90
2022-07-25T06:31:57.757Z,99.90
2022-07-25T06:34:28.551Z,99.90
2022-07-25T06:36:58.494Z,99.90
2022-07-25T06:39:26.252Z,99.90
2022-07-25T06:41:52.977Z,99.90
2022-07-25T06:44:22.202Z,99.90
2022-07-25T06:46:49.036Z,99.90
2022-07-25T06:49:19.353Z,99.90
2022-07-25T06:51:46.083Z,99.90
2022-07-25T06:54:15.745Z,99.90
2022-07-25T06:56:42.567Z,99.90
2022-07-25T06:59:11.537Z,99.90
2022-07-25T07:01:40.798Z,99.90
2022-07-25T07:04:10.381Z,99.90
2022-07-25T07:06:38.654Z,99.90
2022-07-25T07:09:05.638Z,99.90
2022-07-25T07:11:34.265Z,99.90
2022-07-25T07:14:05.154Z,99.90
2022-07-25T07:16:32.246Z,99.90
2022-07-25T07:19:04.273Z,99.90
2022-07-25T07:21:31.255Z,99.90
2022-07-25T07:24:00.491Z,99.90
2022-07-25T07:26:32.198Z,99.90
2022-07-25T07:28:58.984Z,99.90
2022-07-25T07:31:25.967Z,99.90
2022-07-25T07:33:52.735Z,99.90
2022-07-25T07:36:22.227Z,99.90
2022-07-25T07:38:49.117Z,99.90
2022-07-25T07:41:15.936Z,99.90
2022-07-25T07:43:45.118Z,99.90
2022-07-25T07:46:14.260Z,99.90
2022-07-25T07:48:41.087Z,99.90
2022-07-25T07:51:07.924Z,99.90
2022-07-25T07:53:55.885Z,99.90
2022-07-25T07:56:25.102Z,99.90
2022-07-25T07:58:51.903Z,99.20
2022-07-25T08:01:20.978Z,98.90
2022-07-25T08:03:50.134Z,98.10
2022-07-25T08:06:19.460Z,97.80
2022-07-25T08:08:50.963Z,97.30
2022-07-25T08:11:17.728Z,97.00
2022-07-25T08:13:48.867Z,96.10
2022-07-25T08:16:18.026Z,95.10
2022-07-25T08:18:47.368Z,94.50
2022-07-25T08:21:14.217Z,94.20
2022-07-25T08:23:41.114Z,93.40
2022-07-25T08:26:08.302Z,92.80
2022-07-25T08:28:35.168Z,91.20
2022-07-25T08:31:01.994Z,91.20
2022-07-25T08:33:28.902Z,89.70
2022-07-25T08:35:56.341Z,89.10
2022-07-25T08:38:25.124Z,87.70
2022-07-25T08:40:53.260Z,87.90
2022-07-25T08:43:20.753Z,87.90
2022-07-25T08:45:49.868Z,87.60
2022-07-25T08:48:24.126Z,86.20
2022-07-25T08:50:52.007Z,84.20
2022-07-25T08:53:37.661Z,82.80
2022-07-25T08:56:11.515Z,82.20
2022-07-25T08:58:41.368Z,80.40
2022-07-25T09:01:08.592Z,79.40
2022-07-25T09:03:36.323Z,78.40
2022-07-25T09:06:17.865Z,77.80
2022-07-25T09:08:55.974Z,76.10
2022-07-25T09:11:32.376Z,76.40
2022-07-25T09:14:15.607Z,75.70
2022-07-25T09:16:44.822Z,75.40
2022-07-25T09:19:20.308Z,74.80
2022-07-25T09:22:02.420Z,73.00
2022-07-25T09:24:32.954Z,70.50
2022-07-25T09:27:09.566Z,68.50
2022-07-25T09:29:38.778Z,68.70
2022-07-25T09:32:17.583Z,68.60
2022-07-25T09:34:46.925Z,68.60
2022-07-25T09:37:19.470Z,68.20
2022-07-25T09:39:49.344Z,68.00
2022-07-25T09:42:29.032Z,66.70
2022-07-25T09:45:12.865Z,65.80
2022-07-25T09:47:53.582Z,64.30
2022-07-25T09:50:21.762Z,62.70
2022-07-25T09:52:50.811Z,61.10
2022-07-25T09:55:22.965Z,61.30
2022-07-25T09:57:52.582Z,61.40
2022-07-25T10:00:26.212Z,60.70
2022-07-25T10:03:02.349Z,60.50
2022-07-25T10:05:40.403Z,60.60
2022-07-25T10:08:08.728Z,60.10
2022-07-25T10:10:41.200Z,60.30
2022-07-25T10:13:11.143Z,58.50
2022-07-25T10:15:51.097Z,55.40
2022-07-25T10:18:30.035Z,55.70
2022-07-25T10:21:26.147Z,55.40
2022-07-25T10:24:07.878Z,55.30
2022-07-25T10:26:40.020Z,54.30
2022-07-25T10:29:11.386Z,53.60
2022-07-25T10:31:50.350Z,54.10
2022-07-25T10:34:30.712Z,53.90
2022-07-25T10:37:12.481Z,53.90
2022-07-25T10:39:42.091Z,54.60
2022-07-25T10:42:13.653Z,55.20
2022-07-25T10:45:01.984Z,54.80
2022-07-25T10:47:38.417Z,54.60
2022-07-25T10:50:29.557Z,54.50
2022-07-25T10:53:03.185Z,54.70
2022-07-25T10:55:30.146Z,54.30
2022-07-25T10:58:17.189Z,55.00
2022-07-25T11:00:46.957Z,55.80
2022-07-25T11:03:18.102Z,54.60
2022-07-25T11:05:48.443Z,54.10
2022-07-25T11:08:22.186Z,54.50
2022-07-25T11:10:57.075Z,54.50
2022-07-25T11:13:23.986Z,55.80
2022-07-25T11:15:51.208Z,54.70
2022-07-25T11:18:31.479Z,54.80
2022-07-25T11:21:04.314Z,54.70
2022-07-25T11:23:37.056Z,54.40
2022-07-25T11:26:12.445Z,54.30
2022-07-25T11:28:47.497Z,55.20
2022-07-25T11:31:16.031Z,54.90
2022-07-25T11:33:46.186Z,55.40
2022-07-25T11:36:15.726Z,55.20
2022-07-25T11:38:47.004Z,55.30
2022-07-25T11:41:15.969Z,54.50
2022-07-25T11:43:51.613Z,54.00
2022-07-25T11:46:18.612Z,54.30
2022-07-25T11:48:45.601Z,54.60
2022-07-25T11:51:18.931Z,55.30
2022-07-25T11:53:49.713Z,53.60
2022-07-25T11:56:42.016Z,54.00
2022-07-25T11:59:10.223Z,54.00
2022-07-25T12:01:39.968Z,54.60
2022-07-25T12:04:20.215Z,54.40
2022-07-25T12:06:51.801Z,53.70
2022-07-25T12:09:20.402Z,53.70
2022-07-25T12:11:48.731Z,53.10
2022-07-25T12:14:15.721Z,53.30
2022-07-25T12:16:42.766Z,52.40
2022-07-25T12:19:18.503Z,51.90
2022-07-25T12:21:48.046Z,51.30
2022-07-25T12:24:17.001Z,50.90
2022-07-25T12:26:43.799Z,51.20
2022-07-25T12:29:10.887Z,50.70
2022-07-25T12:31:37.834Z,50.40
2022-07-25T12:34:04.607Z,50.60
2022-07-25T12:36:31.436Z,49.60
2022-07-25T12:38:58.194Z,49.50
2022-07-25T12:41:25.376Z,49.90
2022-07-25T12:43:52.486Z,49.10
2022-07-25T12:46:19.470Z,48.50
2022-07-25T12:48:46.374Z,47.90
2022-07-25T12:51:13.364Z,47.60
2022-07-25T12:53:42.503Z,49.20
2022-07-25T12:56:12.174Z,47.70
2022-07-25T12:58:41.630Z,46.50
2022-07-25T13:01:13.593Z,46.40
2022-07-25T13:03:42.550Z,46.40
2022-07-25T13:06:09.342Z,46.20
2022-07-25T13:08:38.519Z,46.30
2022-07-25T13:11:05.335Z,46.30
2022-07-25T13:13:32.141Z,46.00
2022-07-25T13:15:59.164Z,46.20
2022-07-25T13:18:25.941Z,45.70
2022-07-25T13:20:55.097Z,46.10
2022-07-25T13:23:21.948Z,44.70
2022-07-25T13:25:48.746Z,44.80
2022-07-25T13:28:20.099Z,43.30
2022-07-25T13:30:47.837Z,43.00
2022-07-25T13:33:14.597Z,43.50
2022-07-25T13:35:41.373Z,43.50
2022-07-25T13:38:12.653Z,43.50
2022-07-25T13:40:42.733Z,43.50
2022-07-25T13:43:10.185Z,42.90
2022-07-25T13:45:37.407Z,42.60
2022-07-25T13:48:28.546Z,42.90
2022-07-25T13:50:52.112Z,42.00
2022-07-25T13:53:19.339Z,41.90
2022-07-25T13:55:46.409Z,42.10
2022-07-25T13:58:13.250Z,41.70
2022-07-25T14:00:40.565Z,42.50
2022-07-25T14:03:07.335Z,42.90
2022-07-25T14:05:39.195Z,42.50
2022-07-25T14:08:07.528Z,42.50
2022-07-25T14:10:35.136Z,42.70
2022-07-25T14:13:04.691Z,43.00
2022-07-25T14:15:31.554Z,43.40
2022-07-25T14:17:58.364Z,43.40
2022-07-25T14:20:25.437Z,43.70
2022-07-25T14:22:55.228Z,43.30
2022-07-25T14:25:22.723Z,43.30
2022-07-25T14:27:49.772Z,42.90
2022-07-25T14:30:16.638Z,43.70
2022-07-25T14:32:43.539Z,43.70
2022-07-25T14:35:13.187Z,43.40
2022-07-25T14:37:40.104Z,43.80
2022-07-25T14:40:07.740Z,44.00
2022-07-25T14:42:34.520Z,43.20
2022-07-25T14:45:01.264Z,43.90
2022-07-25T14:47:28.170Z,44.40
2022-07-25T14:49:54.923Z,44.40
2022-07-25T14:52:22.634Z,44.90
2022-07-25T14:54:49.845Z,44.70
2022-07-25T14:57:16.628Z,45.40
2022-07-25T14:59:45.516Z,45.80
2022-07-25T15:02:12.501Z,46.70
2022-07-25T15:04:39.335Z,92.20
2022-07-25T15:07:10.965Z,99.90
2022-07-25T15:09:37.946Z,99.90
2022-07-25T15:12:05.052Z,99.90
2022-07-25T15:14:36.734Z,99.90
2022-07-25T15:17:05.954Z,99.90
2022-07-25T15:19:32.902Z,99.90
2022-07-25T15:21:59.792Z,99.90
2022-07-25T15:24:29.275Z,99.90
2022-07-25T15:26:56.756Z,99.90
2022-07-25T15:29:23.549Z,99.90
2022-07-25T15:31:51.209Z,99.90
2022-07-25T15:34:22.649Z,99.90
2022-07-25T15:36:49.433Z,99.90
2022-07-25T15:39:16.553Z,99.90
2022-07-25T15:41:43.331Z,99.90
2022-07-25T15:44:10.107Z,99.90
2022-07-25T15:46:39.427Z,99.90
2022-07-25T15:49:06.503Z,99.90
2022-07-25T15:51:35.622Z,99.90
2022-07-25T15:54:04.764Z,99.90
2022-07-25T15:56:31.659Z,99.90
2022-07-25T15:58:58.457Z,99.90
2022-07-25T16:01:25.365Z,99.90
2022-07-25T16:03:52.188Z,99.90
2022-07-25T16:06:20.730Z,99.90
2022-07-25T16:08:48.752Z,99.90
2022-07-25T16:11:18.051Z,99.90
2022-07-25T16:13:44.981Z,99.90
2022-07-25T16:16:11.863Z,99.90
2022-07-25T16:18:38.647Z,99.90
2022-07-25T16:21:07.923Z,99.90
2022-07-25T16:23:39.015Z,99.90
2022-07-25T16:26:11.206Z,99.90
2022-07-25T16:28:39.254Z,99.90
2022-07-25T16:31:06.864Z,99.90
2022-07-25T16:33:33.732Z,99.90
2022-07-25T16:36:00.551Z,99.90
2022-07-25T16:38:28.854Z,99.90
2022-07-25T16:40:55.736Z,99.90
2022-07-25T16:43:24.785Z,99.90
2022-07-25T16:45:51.600Z,99.90
2022-07-25T16:48:18.402Z,99.90
2022-07-25T16:50:45.356Z,99.90
2022-07-25T16:53:12.218Z,99.90
2022-07-25T16:55:41.184Z,99.90
2022-07-25T16:58:07.986Z,99.90
2022-07-25T17:00:39.173Z,99.90
2022-07-25T17:03:08.141Z,99.90
2022-07-25T17:05:37.810Z,99.90
2022-07-25T17:08:04.895Z,99.90
2022-07-25T17:10:31.651Z,99.90
2022-07-25T17:12:58.541Z,99.90
2022-07-25T17:15:30.231Z,99.90
2022-07-25T17:18:00.071Z,99.90
2022-07-25T17:20:29.125Z,99.90
2022-07-25T17:22:55.978Z,99.90
2022-07-25T17:25:22.763Z,99.90
2022-07-25T17:27:49.529Z,99.90
2022-07-25T17:30:16.374Z,99.90
2022-07-25T17:32:43.687Z,99.90
2022-07-25T17:35:10.508Z,99.90
2022-07-25T17:37:37.359Z,99.90
2022-07-25T17:40:04.910Z,99.90
2022-07-25T17:42:34.018Z,99.90
2022-07-25T17:45:00.829Z,99.90
2022-07-25T17:47:29.698Z,99.90
2022-07-25T17:50:06.841Z,99.90
2022-07-25T17:52:36.430Z,99.90
2022-07-25T17:55:03.567Z,99.90
2022-07-25T17:57:35.732Z,99.90
2022-07-25T18:00:05.045Z,99.90
2022-07-25T18:02:31.850Z,99.90
2022-07-25T18:05:00.775Z,99.90
2022-07-25T18:07:29.766Z,99.90
2022-07-25T18:09:56.686Z,99.90
2022-07-25T18:12:29.609Z,99.90
2022-07-25T18:14:58.819Z,99.90
2022-07-25T18:17:25.814Z,99.90
2022-07-25T18:19:52.607Z,99.90
2022-07-25T18:22:19.462Z,99.90
2022-07-25T18:24:48.499Z,99.90
2022-07-25T18:27:17.410Z,99.90
2022-07-25T18:29:44.167Z,99.90
2022-07-25T18:32:10.979Z,99.90
2022-07-25T18:34:37.888Z,99.90
2022-07-25T18:37:05.800Z,99.90
2022-07-25T18:39:32.564Z,99.90
2022-07-25T18:42:01.896Z,99.90
2022-07-25T18:44:32.364Z,99.90
2022-07-25T18:47:02.074Z,99.90
2022-07-25T18:49:28.844Z,99.90
2022-07-25T18:52:00.515Z,99.90
2022-07-25T18:54:29.982Z,99.90
2022-07-25T18:56:56.800Z,99.90
2022-07-25T18:59:26.264Z,99.90
2022-07-25T19:01:53.292Z,99.90
2022-07-25T19:04:20.146Z,99.90
2022-07-25T19:06:46.964Z,99.90
2022-07-25T19:09:13.742Z,99.90
2022-07-25T19:11:42.952Z,99.90
2022-07-25T19:14:12.186Z,99.90
2022-07-25T19:16:39.033Z,99.90
2022-07-25T19:19:10.394Z,98.90
2022-07-25T19:21:38.195Z,97.30
2022-07-25T19:24:05.760Z,94.40
2022-07-25T19:26:34.597Z,92.50
2022-07-25T19:29:01.594Z,92.10
2022-07-25T19:31:31.272Z,90.30
2022-07-25T19:34:01.479Z,88.60
2022-07-25T19:36:30.311Z,87.70
2022-07-25T19:38:57.182Z,86.10
2022-07-25T19:41:26.221Z,84.90
2022-07-25T19:43:53.545Z,83.20
2022-07-25T19:46:20.876Z,82.60
2022-07-25T19:48:47.839Z,81.40
2022-07-25T19:51:17.107Z,78.30
2022-07-25T19:53:43.881Z,79.00
2022-07-25T19:56:12.744Z,79.60
2022-07-25T19:58:40.548Z,79.10
2022-07-25T20:01:12.566Z,78.40
2022-07-25T20:03:43.851Z,78.80
2022-07-25T20:06:10.829Z,79.00
2022-07-25T20:08:39.462Z,78.40
2022-07-25T20:11:11.406Z,77.60
2022-07-25T20:13:45.736Z,78.00
2022-07-25T20:16:12.597Z,77.90
2022-07-25T20:18:39.383Z,77.80
2022-07-25T20:21:06.622Z,77.50
2022-07-25T20:23:35.827Z,78.00
2022-07-25T20:26:09.168Z,76.90
2022-07-25T20:28:36.342Z,77.80
2022-07-25T20:31:03.445Z,78.50
2022-07-25T20:33:31.018Z,78.80
2022-07-25T20:35:58.967Z,78.80
2022-07-25T20:38:28.363Z,79.20
2022-07-25T20:40:58.219Z,79.50
2022-07-25T20:43:28.618Z,80.80
2022-07-25T20:45:55.526Z,81.60
2022-07-25T20:48:24.828Z,81.10
2022-07-25T20:50:51.782Z,81.30
2022-07-25T20:53:19.626Z,81.80
2022-07-25T20:55:48.646Z,83.30
2022-07-25T20:58:17.849Z,84.40
2022-07-25T21:00:44.869Z,84.10
2022-07-25T21:03:16.384Z,84.70
2022-07-25T21:05:43.799Z,84.50
2022-07-25T21:08:12.739Z,85.20
2022-07-25T21:10:39.562Z,85.00
2022-07-25T21:13:08.536Z,85.00
2022-07-25T21:15:37.566Z,84.70
2022-07-25T21:18:07.538Z,85.20
2022-07-25T21:20:35.996Z,85.50
2022-07-25T21:23:02.848Z,84.80
2022-07-25T21:25:31.958Z,85.70
2022-07-25T21:27:58.811Z,85.70
2022-07-25T21:30:25.641Z,85.20
2022-07-25T21:32:52.501Z,86.00
2022-07-25T21:35:21.734Z,86.20
2022-07-25T21:37:51.379Z,87.00
2022-07-25T21:40:18.137Z,88.20
2022-07-25T21:42:47.166Z,90.70
2022-07-25T21:45:16.188Z,91.80
2022-07-25T21:47:43.007Z,93.40
2022-07-25T21:50:28.653Z,94.00
2022-07-25T21:52:55.800Z,95.40
2022-07-25T21:55:22.757Z,96.40
2022-07-25T21:57:51.409Z,97.00
2022-07-25T22:00:19.029Z,97.50
2022-07-25T22:02:46.703Z,98.20
2022-07-25T22:05:14.755Z,99.30
2022-07-25T22:07:42.150Z,99.90
2022-07-25T22:10:15.454Z,99.90
2022-07-25T22:12:45.176Z,99.90
2022-07-25T22:15:13.030Z,99.90
2022-07-25T22:17:49.187Z,99.90
2022-07-25T22:20:18.917Z,99.90
2022-07-25T22:22:49.008Z,99.90
2022-07-25T22:25:18.281Z,99.90
2022-07-25T22:27:45.179Z,99.90
2022-07-25T22:30:19.257Z,99.90
2022-07-25T22:32:49.861Z,99.90
2022-07-25T22:35:17.463Z,99.90
2022-07-25T22:37:45.396Z,99.90
2022-07-25T22:40:13.019Z,99.90
2022-07-25T22:42:42.406Z,99.90
2022-07-25T22:45:09.775Z,99.90
2022-07-25T22:47:36.638Z,99.90
2022-07-25T22:50:07.023Z,99.90
2022-07-25T22:52:35.020Z,99.90
2022-07-25T22:55:04.177Z,99.90
2022-07-25T22:57:37.124Z,99.90
2022-07-25T23:00:08.168Z,99.90
2022-07-25T23:02:37.148Z,99.90
2022-07-25T23:05:07.125Z,99.90
2022-07-25T23:07:34.084Z,99.90
2022-07-25T23:10:01.383Z,99.90
2022-07-25T23:12:30.681Z,99.90
2022-07-25T23:14:59.924Z,99.90
2022-07-25T23:17:26.707Z,99.90
2022-07-25T23:19:57.733Z,99.90
2022-07-25T23:22:28.340Z,99.90
2022-07-25T23:24:56.295Z,99.90
2022-07-25T23:27:23.337Z,99.90
2022-07-25T23:29:50.145Z,99.90
2022-07-25T23:32:16.975Z,99.90
2022-07-25T23:34:43.837Z,99.90
2022-07-25T23:37:12.922Z,99.90
2022-07-25T23:39:41.936Z,99.90
2022-07-25T23:42:10.888Z,99.90
2022-07-25T23:44:38.240Z,99.90
2022-07-25T23:47:05.510Z,99.90
2022-07-25T23:49:37.094Z,99.90
2022-07-25T23:52:06.369Z,99.90
2022-07-25T23:54:34.963Z,99.90
2022-07-25T23:57:02.923Z,99.90
2022-07-25T23:59:29.677Z,99.90
